sensor_id;sensor_type;location;lat;lon;timestamp;P1;durP1;ratioP1;P2;durP2;ratioP2
11837;SDS011;5978;51.020;6.764;2023-02-08T00:01:15;12.25;;;8.52;;
11837;SDS011;5978;51.020;6.764;2023-02-08T00:03:46;13.95;;;9.85;;
11837;SDS011;5978;51.020;6.764;2023-02-08T00:06:12;14.18;;;10.48;;
11837;SDS011;5978;51.020;6.764;2023-02-08T00:08:38;17.42;;;10.32;;
11837;SDS011;5978;51.020;6.764;2023-02-08T00:11:03;22.53;;;9.97;;
11837;SDS011;5978;51.020;6.764;2023-02-08T00:13:30;15.88;;;10.25;;
11837;SDS011;5978;51.020;6.764;2023-02-08T00:15:56;16.95;;;10.48;;
11837;SDS011;5978;51.020;6.764;2023-02-08T00:18:21;15.57;;;9.80;;
11837;SDS011;5978;51.020;6.764;2023-02-08T00:20:47;16.90;;;10.90;;
11837;SDS011;5978;51.020;6.764;2023-02-08T00:23:13;17.08;;;8.80;;
11837;SDS011;5978;51.020;6.764;2023-02-08T00:25:39;14.85;;;11.00;;
11837;SDS011;5978;51.020;6.764;2023-02-08T00:28:05;15.05;;;10.13;;
11837;SDS011;5978;51.020;6.764;2023-02-08T00:30:32;14.65;;;10.23;;
11837;SDS011;5978;51.020;6.764;2023-02-08T00:32:59;16.58;;;10.20;;
11837;SDS011;5978;51.020;6.764;2023-02-08T00:35:25;16.77;;;10.95;;
11837;SDS011;5978;51.020;6.764;2023-02-08T00:37:54;19.20;;;10.90;;
11837;SDS011;5978;51.020;6.764;2023-02-08T00:40:20;17.05;;;10.57;;
11837;SDS011;5978;51.020;6.764;2023-02-08T00:42:46;18.90;;;11.10;;
11837;SDS011;5978;51.020;6.764;2023-02-08T00:45:12;13.00;;;9.87;;
11837;SDS011;5978;51.020;6.764;2023-02-08T00:47:37;15.90;;;9.57;;
11837;SDS011;5978;51.020;6.764;2023-02-08T00:50:03;25.90;;;9.90;;
11837;SDS011;5978;51.020;6.764;2023-02-08T00:52:29;22.20;;;10.77;;
11837;SDS011;5978;51.020;6.764;2023-02-08T00:54:55;15.70;;;9.73;;
11837;SDS011;5978;51.020;6.764;2023-02-08T00:57:21;14.23;;;10.00;;
11837;SDS011;5978;51.020;6.764;2023-02-08T00:59:46;19.03;;;9.33;;
11837;SDS011;5978;51.020;6.764;2023-02-08T01:02:12;17.70;;;9.53;;
11837;SDS011;5978;51.020;6.764;2023-02-08T01:04:37;20.37;;;10.33;;
11837;SDS011;5978;51.020;6.764;2023-02-08T01:07:03;15.83;;;9.77;;
11837;SDS011;5978;51.020;6.764;2023-02-08T01:09:29;14.82;;;9.23;;
11837;SDS011;5978;51.020;6.764;2023-02-08T01:11:55;19.75;;;10.00;;
11837;SDS011;5978;51.020;6.764;2023-02-08T01:14:21;16.93;;;8.30;;
11837;SDS011;5978;51.020;6.764;2023-02-08T01:16:47;11.60;;;8.90;;
11837;SDS011;5978;51.020;6.764;2023-02-08T01:19:12;14.43;;;8.50;;
11837;SDS011;5978;51.020;6.764;2023-02-08T01:21:39;12.67;;;9.13;;
11837;SDS011;5978;51.020;6.764;2023-02-08T01:24:05;17.08;;;9.40;;
11837;SDS011;5978;51.020;6.764;2023-02-08T01:26:32;15.48;;;10.15;;
11837;SDS011;5978;51.020;6.764;2023-02-08T01:28:58;14.45;;;9.52;;
11837;SDS011;5978;51.020;6.764;2023-02-08T01:31:25;17.38;;;9.13;;
11837;SDS011;5978;51.020;6.764;2023-02-08T01:33:55;14.18;;;8.93;;
11837;SDS011;5978;51.020;6.764;2023-02-08T01:36:22;13.18;;;9.40;;
11837;SDS011;5978;51.020;6.764;2023-02-08T01:38:48;13.57;;;9.60;;
11837;SDS011;5978;51.020;6.764;2023-02-08T01:41:16;14.50;;;10.00;;
11837;SDS011;5978;51.020;6.764;2023-02-08T01:46:34;13.85;;;8.95;;
11837;SDS011;5978;51.020;6.764;2023-02-08T01:49:08;18.25;;;10.25;;
11837;SDS011;5978;51.020;6.764;2023-02-08T01:51:37;22.83;;;12.15;;
11837;SDS011;5978;51.020;6.764;2023-02-08T01:54:06;18.65;;;10.00;;
11837;SDS011;5978;51.020;6.764;2023-02-08T01:56:35;13.55;;;10.15;;
11837;SDS011;5978;51.020;6.764;2023-02-08T01:59:06;17.20;;;10.60;;
11837;SDS011;5978;51.020;6.764;2023-02-08T02:01:36;12.45;;;8.10;;
11837;SDS011;5978;51.020;6.764;2023-02-08T02:04:04;15.02;;;9.98;;
11837;SDS011;5978;51.020;6.764;2023-02-08T02:06:32;14.63;;;8.93;;
11837;SDS011;5978;51.020;6.764;2023-02-08T02:09:13;14.40;;;9.50;;
11837;SDS011;5978;51.020;6.764;2023-02-08T02:11:46;17.58;;;9.18;;
11837;SDS011;5978;51.020;6.764;2023-02-08T02:14:13;14.93;;;9.70;;
11837;SDS011;5978;51.020;6.764;2023-02-08T02:16:39;14.77;;;9.13;;
11837;SDS011;5978;51.020;6.764;2023-02-08T02:19:06;17.07;;;10.47;;
11837;SDS011;5978;51.020;6.764;2023-02-08T02:24:49;10.30;;;9.00;;
11837;SDS011;5978;51.020;6.764;2023-02-08T02:30:23;12.57;;;8.20;;
11837;SDS011;5978;51.020;6.764;2023-02-08T02:35:50;14.38;;;8.68;;
11837;SDS011;5978;51.020;6.764;2023-02-08T02:44:00;11.85;;;9.00;;
11837;SDS011;5978;51.020;6.764;2023-02-08T02:49:16;19.02;;;9.07;;
11837;SDS011;5978;51.020;6.764;2023-02-08T02:52:21;13.70;;;8.30;;
11837;SDS011;5978;51.020;6.764;2023-02-08T02:54:57;13.85;;;8.85;;
11837;SDS011;5978;51.020;6.764;2023-02-08T02:57:32;14.82;;;8.85;;
11837;SDS011;5978;51.020;6.764;2023-02-08T02:59:59;12.98;;;9.00;;
11837;SDS011;5978;51.020;6.764;2023-02-08T03:02:31;14.27;;;8.05;;
11837;SDS011;5978;51.020;6.764;2023-02-08T03:04:56;11.97;;;9.80;;
11837;SDS011;5978;51.020;6.764;2023-02-08T03:07:26;14.67;;;8.83;;
11837;SDS011;5978;51.020;6.764;2023-02-08T03:15:27;10.65;;;7.60;;
11837;SDS011;5978;51.020;6.764;2023-02-08T03:18:05;16.52;;;8.00;;
11837;SDS011;5978;51.020;6.764;2023-02-08T03:20:40;13.00;;;9.27;;
11837;SDS011;5978;51.020;6.764;2023-02-08T03:25:53;15.88;;;8.93;;
11837;SDS011;5978;51.020;6.764;2023-02-08T03:28:29;17.88;;;8.27;;
11837;SDS011;5978;51.020;6.764;2023-02-08T03:31:01;14.07;;;9.63;;
11837;SDS011;5978;51.020;6.764;2023-02-08T03:33:36;18.25;;;9.82;;
11837;SDS011;5978;51.020;6.764;2023-02-08T03:38:44;14.73;;;9.20;;
11837;SDS011;5978;51.020;6.764;2023-02-08T03:41:13;12.18;;;8.32;;
11837;SDS011;5978;51.020;6.764;2023-02-08T03:43:42;13.48;;;8.13;;
11837;SDS011;5978;51.020;6.764;2023-02-08T03:46:16;11.68;;;8.25;;
11837;SDS011;5978;51.020;6.764;2023-02-08T03:48:48;15.75;;;10.60;;
11837;SDS011;5978;51.020;6.764;2023-02-08T03:51:20;14.80;;;9.73;;
11837;SDS011;5978;51.020;6.764;2023-02-08T03:53:48;16.13;;;9.52;;
11837;SDS011;5978;51.020;6.764;2023-02-08T03:56:19;12.38;;;9.52;;
11837;SDS011;5978;51.020;6.764;2023-02-08T03:58:57;15.75;;;9.52;;
11837;SDS011;5978;51.020;6.764;2023-02-08T04:01:28;17.85;;;10.15;;
11837;SDS011;5978;51.020;6.764;2023-02-08T04:04:02;15.30;;;9.02;;
11837;SDS011;5978;51.020;6.764;2023-02-08T04:06:28;18.27;;;10.93;;
11837;SDS011;5978;51.020;6.764;2023-02-08T04:08:54;15.60;;;9.80;;
11837;SDS011;5978;51.020;6.764;2023-02-08T04:11:20;12.83;;;8.87;;
11837;SDS011;5978;51.020;6.764;2023-02-08T04:13:45;16.73;;;10.00;;
11837;SDS011;5978;51.020;6.764;2023-02-08T04:16:11;19.60;;;9.57;;
11837;SDS011;5978;51.020;6.764;2023-02-08T04:18:37;17.67;;;8.75;;
11837;SDS011;5978;51.020;6.764;2023-02-08T04:21:03;14.83;;;10.67;;
11837;SDS011;5978;51.020;6.764;2023-02-08T04:23:31;11.88;;;8.25;;
11837;SDS011;5978;51.020;6.764;2023-02-08T04:25:57;18.63;;;9.33;;
11837;SDS011;5978;51.020;6.764;2023-02-08T04:28:22;14.17;;;9.00;;
11837;SDS011;5978;51.020;6.764;2023-02-08T04:30:48;13.40;;;8.53;;
11837;SDS011;5978;51.020;6.764;2023-02-08T04:33:13;14.70;;;8.83;;
11837;SDS011;5978;51.020;6.764;2023-02-08T04:35:42;18.03;;;9.73;;
11837;SDS011;5978;51.020;6.764;2023-02-08T04:38:07;17.35;;;10.10;;
11837;SDS011;5978;51.020;6.764;2023-02-08T04:40:33;14.60;;;9.70;;
11837;SDS011;5978;51.020;6.764;2023-02-08T04:42:59;16.48;;;10.07;;
11837;SDS011;5978;51.020;6.764;2023-02-08T04:45:26;19.10;;;8.90;;
11837;SDS011;5978;51.020;6.764;2023-02-08T04:47:53;13.40;;;8.60;;
11837;SDS011;5978;51.020;6.764;2023-02-08T04:50:19;15.80;;;10.20;;
11837;SDS011;5978;51.020;6.764;2023-02-08T04:52:45;15.10;;;9.30;;
11837;SDS011;5978;51.020;6.764;2023-02-08T04:55:10;17.30;;;9.70;;
11837;SDS011;5978;51.020;6.764;2023-02-08T04:57:36;14.33;;;9.50;;
11837;SDS011;5978;51.020;6.764;2023-02-08T05:00:02;12.03;;;8.83;;
11837;SDS011;5978;51.020;6.764;2023-02-08T05:02:28;13.18;;;9.30;;
11837;SDS011;5978;51.020;6.764;2023-02-08T05:04:54;16.17;;;9.43;;
11837;SDS011;5978;51.020;6.764;2023-02-08T05:07:19;16.33;;;9.13;;
11837;SDS011;5978;51.020;6.764;2023-02-08T05:09:45;14.10;;;8.70;;
11837;SDS011;5978;51.020;6.764;2023-02-08T05:12:12;16.03;;;9.50;;
11837;SDS011;5978;51.020;6.764;2023-02-08T05:14:37;12.77;;;10.35;;
11837;SDS011;5978;51.020;6.764;2023-02-08T05:17:03;11.90;;;8.87;;
11837;SDS011;5978;51.020;6.764;2023-02-08T05:19:29;10.80;;;8.40;;
11837;SDS011;5978;51.020;6.764;2023-02-08T05:21:54;17.10;;;8.70;;
11837;SDS011;5978;51.020;6.764;2023-02-08T05:24:20;16.60;;;9.27;;
11837;SDS011;5978;51.020;6.764;2023-02-08T05:26:46;13.57;;;9.00;;
11837;SDS011;5978;51.020;6.764;2023-02-08T05:29:11;14.53;;;8.60;;
11837;SDS011;5978;51.020;6.764;2023-02-08T05:31:37;12.50;;;9.10;;
11837;SDS011;5978;51.020;6.764;2023-02-08T05:34:03;16.57;;;10.40;;
11837;SDS011;5978;51.020;6.764;2023-02-08T05:36:28;13.43;;;9.47;;
11837;SDS011;5978;51.020;6.764;2023-02-08T05:38:54;13.40;;;8.43;;
11837;SDS011;5978;51.020;6.764;2023-02-08T05:41:19;16.17;;;9.00;;
11837;SDS011;5978;51.020;6.764;2023-02-08T05:43:45;18.70;;;11.57;;
11837;SDS011;5978;51.020;6.764;2023-02-08T05:46:11;16.03;;;11.00;;
11837;SDS011;5978;51.020;6.764;2023-02-08T05:48:37;13.90;;;8.80;;
11837;SDS011;5978;51.020;6.764;2023-02-08T05:51:02;16.80;;;10.17;;
11837;SDS011;5978;51.020;6.764;2023-02-08T05:53:28;13.10;;;9.70;;
11837;SDS011;5978;51.020;6.764;2023-02-08T05:55:55;18.75;;;10.13;;
11837;SDS011;5978;51.020;6.764;2023-02-08T05:58:21;14.98;;;9.02;;
11837;SDS011;5978;51.020;6.764;2023-02-08T06:00:48;17.75;;;9.75;;
11837;SDS011;5978;51.020;6.764;2023-02-08T06:03:13;15.07;;;10.63;;
11837;SDS011;5978;51.020;6.764;2023-02-08T06:05:39;15.33;;;9.30;;
11837;SDS011;5978;51.020;6.764;2023-02-08T06:08:06;12.68;;;9.40;;
11837;SDS011;5978;51.020;6.764;2023-02-08T06:10:32;20.27;;;10.38;;
11837;SDS011;5978;51.020;6.764;2023-02-08T06:12:57;14.87;;;9.30;;
11837;SDS011;5978;51.020;6.764;2023-02-08T06:15:23;16.13;;;9.70;;
11837;SDS011;5978;51.020;6.764;2023-02-08T06:17:49;16.03;;;9.50;;
11837;SDS011;5978;51.020;6.764;2023-02-08T06:20:15;20.00;;;11.50;;
11837;SDS011;5978;51.020;6.764;2023-02-08T06:22:40;12.60;;;8.67;;
11837;SDS011;5978;51.020;6.764;2023-02-08T06:25:06;17.20;;;10.63;;
11837;SDS011;5978;51.020;6.764;2023-02-08T06:27:33;10.48;;;8.75;;
11837;SDS011;5978;51.020;6.764;2023-02-08T06:29:58;16.90;;;9.97;;
11837;SDS011;5978;51.020;6.764;2023-02-08T06:32:24;13.77;;;9.00;;
11837;SDS011;5978;51.020;6.764;2023-02-08T06:34:50;16.57;;;9.37;;
11837;SDS011;5978;51.020;6.764;2023-02-08T06:37:16;16.20;;;10.87;;
11837;SDS011;5978;51.020;6.764;2023-02-08T06:39:42;12.73;;;9.68;;
11837;SDS011;5978;51.020;6.764;2023-02-08T06:42:07;13.77;;;9.07;;
11837;SDS011;5978;51.020;6.764;2023-02-08T06:44:33;12.53;;;8.37;;
11837;SDS011;5978;51.020;6.764;2023-02-08T06:46:59;14.67;;;9.20;;
11837;SDS011;5978;51.020;6.764;2023-02-08T06:49:24;15.40;;;9.60;;
11837;SDS011;5978;51.020;6.764;2023-02-08T06:51:50;16.03;;;9.20;;
11837;SDS011;5978;51.020;6.764;2023-02-08T06:54:15;18.37;;;9.27;;
11837;SDS011;5978;51.020;6.764;2023-02-08T06:56:41;15.33;;;8.70;;
11837;SDS011;5978;51.020;6.764;2023-02-08T06:59:07;12.77;;;9.40;;
11837;SDS011;5978;51.020;6.764;2023-02-08T07:01:33;12.50;;;8.60;;
11837;SDS011;5978;51.020;6.764;2023-02-08T07:03:58;20.93;;;10.83;;
11837;SDS011;5978;51.020;6.764;2023-02-08T07:06:24;17.63;;;9.60;;
11837;SDS011;5978;51.020;6.764;2023-02-08T07:08:49;16.73;;;10.30;;
11837;SDS011;5978;51.020;6.764;2023-02-08T07:11:17;16.53;;;9.67;;
11837;SDS011;5978;51.020;6.764;2023-02-08T07:13:45;17.65;;;10.60;;
11837;SDS011;5978;51.020;6.764;2023-02-08T07:16:12;13.63;;;8.68;;
11837;SDS011;5978;51.020;6.764;2023-02-08T07:18:38;19.60;;;10.30;;
11837;SDS011;5978;51.020;6.764;2023-02-08T07:21:04;16.30;;;9.93;;
11837;SDS011;5978;51.020;6.764;2023-02-08T07:23:29;14.63;;;9.07;;
11837;SDS011;5978;51.020;6.764;2023-02-08T07:25:56;15.60;;;9.60;;
11837;SDS011;5978;51.020;6.764;2023-02-08T07:28:25;14.40;;;9.70;;
11837;SDS011;5978;51.020;6.764;2023-02-08T07:30:51;14.40;;;8.53;;
11837;SDS011;5978;51.020;6.764;2023-02-08T07:33:17;13.50;;;9.13;;
11837;SDS011;5978;51.020;6.764;2023-02-08T07:35:43;15.60;;;10.60;;
11837;SDS011;5978;51.020;6.764;2023-02-08T07:38:08;15.75;;;9.15;;
11837;SDS011;5978;51.020;6.764;2023-02-08T07:40:34;16.43;;;10.30;;
11837;SDS011;5978;51.020;6.764;2023-02-08T07:43:00;19.27;;;10.30;;
11837;SDS011;5978;51.020;6.764;2023-02-08T07:45:25;23.47;;;11.50;;
11837;SDS011;5978;51.020;6.764;2023-02-08T07:47:51;24.13;;;12.30;;
11837;SDS011;5978;51.020;6.764;2023-02-08T07:50:16;19.40;;;11.50;;
11837;SDS011;5978;51.020;6.764;2023-02-08T07:52:42;18.20;;;11.07;;
11837;SDS011;5978;51.020;6.764;2023-02-08T07:55:10;17.48;;;11.77;;
11837;SDS011;5978;51.020;6.764;2023-02-08T07:57:41;22.45;;;11.70;;
11837;SDS011;5978;51.020;6.764;2023-02-08T08:00:11;14.15;;;9.13;;
11837;SDS011;5978;51.020;6.764;2023-02-08T08:02:37;14.32;;;9.13;;
11837;SDS011;5978;51.020;6.764;2023-02-08T08:05:03;14.23;;;9.10;;
11837;SDS011;5978;51.020;6.764;2023-02-08T08:07:28;14.70;;;8.93;;
11837;SDS011;5978;51.020;6.764;2023-02-08T08:09:54;18.80;;;10.60;;
11837;SDS011;5978;51.020;6.764;2023-02-08T08:12:20;16.70;;;10.13;;
11837;SDS011;5978;51.020;6.764;2023-02-08T08:14:45;16.50;;;8.90;;
11837;SDS011;5978;51.020;6.764;2023-02-08T08:17:11;17.83;;;10.00;;
11837;SDS011;5978;51.020;6.764;2023-02-08T08:19:37;19.70;;;10.30;;
11837;SDS011;5978;51.020;6.764;2023-02-08T08:22:03;14.00;;;8.80;;
11837;SDS011;5978;51.020;6.764;2023-02-08T08:24:28;14.80;;;9.83;;
11837;SDS011;5978;51.020;6.764;2023-02-08T08:26:55;16.77;;;9.02;;
11837;SDS011;5978;51.020;6.764;2023-02-08T08:29:21;14.82;;;9.77;;
11837;SDS011;5978;51.020;6.764;2023-02-08T08:31:47;16.37;;;9.77;;
11837;SDS011;5978;51.020;6.764;2023-02-08T08:34:13;15.23;;;8.97;;
11837;SDS011;5978;51.020;6.764;2023-02-08T08:36:39;21.13;;;9.03;;
11837;SDS011;5978;51.020;6.764;2023-02-08T08:39:04;13.60;;;8.90;;
11837;SDS011;5978;51.020;6.764;2023-02-08T08:41:30;16.03;;;8.70;;
11837;SDS011;5978;51.020;6.764;2023-02-08T08:43:55;14.97;;;9.03;;
11837;SDS011;5978;51.020;6.764;2023-02-08T08:46:21;15.60;;;9.50;;
11837;SDS011;5978;51.020;6.764;2023-02-08T08:48:47;11.03;;;7.90;;
11837;SDS011;5978;51.020;6.764;2023-02-08T08:51:12;14.10;;;8.37;;
11837;SDS011;5978;51.020;6.764;2023-02-08T08:53:38;10.20;;;8.27;;
11837;SDS011;5978;51.020;6.764;2023-02-08T08:56:04;15.17;;;9.23;;
11837;SDS011;5978;51.020;6.764;2023-02-08T08:58:30;11.40;;;8.20;;
11837;SDS011;5978;51.020;6.764;2023-02-08T09:00:56;14.17;;;8.70;;
11837;SDS011;5978;51.020;6.764;2023-02-08T09:03:25;11.27;;;8.88;;
11837;SDS011;5978;51.020;6.764;2023-02-08T09:05:52;13.18;;;8.25;;
11837;SDS011;5978;51.020;6.764;2023-02-08T09:08:17;17.83;;;9.13;;
11837;SDS011;5978;51.020;6.764;2023-02-08T09:10:43;10.77;;;7.90;;
11837;SDS011;5978;51.020;6.764;2023-02-08T09:13:09;13.33;;;8.20;;
11837;SDS011;5978;51.020;6.764;2023-02-08T09:15:38;11.65;;;7.50;;
11837;SDS011;5978;51.020;6.764;2023-02-08T09:18:05;10.95;;;8.20;;
11837;SDS011;5978;51.020;6.764;2023-02-08T09:20:31;12.17;;;8.07;;
11837;SDS011;5978;51.020;6.764;2023-02-08T09:22:56;14.53;;;8.80;;
11837;SDS011;5978;51.020;6.764;2023-02-08T09:25:22;9.23;;;7.83;;
11837;SDS011;5978;51.020;6.764;2023-02-08T09:27:47;25.03;;;8.83;;
11837;SDS011;5978;51.020;6.764;2023-02-08T09:30:13;13.73;;;8.60;;
11837;SDS011;5978;51.020;6.764;2023-02-08T09:32:39;10.80;;;7.60;;
11837;SDS011;5978;51.020;6.764;2023-02-08T09:35:05;10.20;;;8.30;;
11837;SDS011;5978;51.020;6.764;2023-02-08T09:37:31;14.65;;;8.80;;
11837;SDS011;5978;51.020;6.764;2023-02-08T09:39:57;13.63;;;9.00;;
11837;SDS011;5978;51.020;6.764;2023-02-08T09:42:39;17.05;;;7.95;;
11837;SDS011;5978;51.020;6.764;2023-02-08T09:48:15;12.07;;;7.90;;
11837;SDS011;5978;51.020;6.764;2023-02-08T09:50:52;8.48;;;6.70;;
11837;SDS011;5978;51.020;6.764;2023-02-08T09:53:24;12.60;;;8.20;;
11837;SDS011;5978;51.020;6.764;2023-02-08T09:55:58;9.38;;;7.30;;
11837;SDS011;5978;51.020;6.764;2023-02-08T09:58:33;10.35;;;6.72;;
11837;SDS011;5978;51.020;6.764;2023-02-08T10:01:00;12.48;;;8.07;;
11837;SDS011;5978;51.020;6.764;2023-02-08T10:03:37;10.77;;;7.13;;
11837;SDS011;5978;51.020;6.764;2023-02-08T10:06:06;13.50;;;8.23;;
11837;SDS011;5978;51.020;6.764;2023-02-08T10:08:35;9.88;;;7.45;;
11837;SDS011;5978;51.020;6.764;2023-02-08T10:13:53;18.25;;;7.60;;
11837;SDS011;5978;51.020;6.764;2023-02-08T10:21:55;12.02;;;7.30;;
11837;SDS011;5978;51.020;6.764;2023-02-08T10:24:47;9.80;;;6.80;;
11837;SDS011;5978;51.020;6.764;2023-02-08T10:27:22;12.23;;;7.20;;
11837;SDS011;5978;51.020;6.764;2023-02-08T10:30:13;11.57;;;7.10;;
11837;SDS011;5978;51.020;6.764;2023-02-08T10:33:06;9.20;;;6.20;;
11837;SDS011;5978;51.020;6.764;2023-02-08T10:35:53;10.10;;;6.80;;
11837;SDS011;5978;51.020;6.764;2023-02-08T10:38:22;11.63;;;8.25;;
11837;SDS011;5978;51.020;6.764;2023-02-08T10:41:24;9.95;;;7.55;;
11837;SDS011;5978;51.020;6.764;2023-02-08T10:43:51;11.13;;;7.35;;
11837;SDS011;5978;51.020;6.764;2023-02-08T10:46:31;14.02;;;8.25;;
11837;SDS011;5978;51.020;6.764;2023-02-08T10:49:12;9.50;;;6.40;;
11837;SDS011;5978;51.020;6.764;2023-02-08T10:51:49;10.88;;;7.05;;
11837;SDS011;5978;51.020;6.764;2023-02-08T10:54:14;15.40;;;7.60;;
11837;SDS011;5978;51.020;6.764;2023-02-08T10:59:32;11.15;;;7.53;;
11837;SDS011;5978;51.020;6.764;2023-02-08T11:02:07;12.35;;;7.82;;
11837;SDS011;5978;51.020;6.764;2023-02-08T11:04:59;11.23;;;7.78;;
11837;SDS011;5978;51.020;6.764;2023-02-08T11:07:27;8.38;;;6.43;;
11837;SDS011;5978;51.020;6.764;2023-02-08T11:09:53;10.55;;;7.68;;
11837;SDS011;5978;51.020;6.764;2023-02-08T11:12:22;10.68;;;7.70;;
11837;SDS011;5978;51.020;6.764;2023-02-08T11:14:49;13.83;;;8.00;;
11837;SDS011;5978;51.020;6.764;2023-02-08T11:17:23;12.65;;;7.40;;
11837;SDS011;5978;51.020;6.764;2023-02-08T11:19:51;9.50;;;7.00;;
11837;SDS011;5978;51.020;6.764;2023-02-08T11:22:17;12.50;;;7.63;;
11837;SDS011;5978;51.020;6.764;2023-02-08T11:24:45;9.23;;;7.17;;
11837;SDS011;5978;51.020;6.764;2023-02-08T11:27:36;10.70;;;8.10;;
11837;SDS011;5978;51.020;6.764;2023-02-08T11:32:34;10.90;;;8.00;;
11837;SDS011;5978;51.020;6.764;2023-02-08T11:37:57;8.03;;;6.43;;
11837;SDS011;5978;51.020;6.764;2023-02-08T11:40:34;10.90;;;7.77;;
11837;SDS011;5978;51.020;6.764;2023-02-08T11:43:01;11.63;;;7.50;;
11837;SDS011;5978;51.020;6.764;2023-02-08T11:45:31;11.93;;;7.60;;
11837;SDS011;5978;51.020;6.764;2023-02-08T11:48:00;9.60;;;8.20;;
11837;SDS011;5978;51.020;6.764;2023-02-08T11:50:32;10.40;;;7.90;;
11837;SDS011;5978;51.020;6.764;2023-02-08T11:53:06;9.90;;;7.50;;
11837;SDS011;5978;51.020;6.764;2023-02-08T11:55:45;9.80;;;6.90;;
11837;SDS011;5978;51.020;6.764;2023-02-08T11:58:24;7.93;;;7.13;;
11837;SDS011;5978;51.020;6.764;2023-02-08T12:03:46;9.37;;;7.97;;
11837;SDS011;5978;51.020;6.764;2023-02-08T12:23:13;10.50;;;6.37;;
11837;SDS011;5978;51.020;6.764;2023-02-08T12:25:51;11.10;;;7.63;;
11837;SDS011;5978;51.020;6.764;2023-02-08T12:34:26;9.10;;;6.67;;
11837;SDS011;5978;51.020;6.764;2023-02-08T12:40:21;7.80;;;5.70;;
11837;SDS011;5978;51.020;6.764;2023-02-08T12:52:13;7.43;;;5.53;;
11837;SDS011;5978;51.020;6.764;2023-02-08T12:54:44;7.60;;;5.97;;
11837;SDS011;5978;51.020;6.764;2023-02-08T12:57:15;7.67;;;5.40;;
11837;SDS011;5978;51.020;6.764;2023-02-08T13:02:25;6.23;;;5.63;;
11837;SDS011;5978;51.020;6.764;2023-02-08T13:04:54;7.33;;;5.00;;
11837;SDS011;5978;51.020;6.764;2023-02-08T13:07:28;6.30;;;5.00;;
11837;SDS011;5978;51.020;6.764;2023-02-08T13:12:35;7.93;;;5.47;;
11837;SDS011;5978;51.020;6.764;2023-02-08T13:15:13;7.27;;;5.60;;
11837;SDS011;5978;51.020;6.764;2023-02-08T13:20:32;6.20;;;4.67;;
11837;SDS011;5978;51.020;6.764;2023-02-08T13:26:02;4.70;;;3.90;;
11837;SDS011;5978;51.020;6.764;2023-02-08T13:28:34;6.50;;;4.60;;
11837;SDS011;5978;51.020;6.764;2023-02-08T13:31:05;6.60;;;4.50;;
11837;SDS011;5978;51.020;6.764;2023-02-08T13:33:40;5.73;;;4.40;;
11837;SDS011;5978;51.020;6.764;2023-02-08T13:36:26;6.63;;;3.90;;
11837;SDS011;5978;51.020;6.764;2023-02-08T13:39:05;4.70;;;4.30;;
11837;SDS011;5978;51.020;6.764;2023-02-08T13:41:33;5.00;;;4.33;;
11837;SDS011;5978;51.020;6.764;2023-02-08T13:44:00;6.70;;;4.57;;
11837;SDS011;5978;51.020;6.764;2023-02-08T13:46:44;5.53;;;4.13;;
11837;SDS011;5978;51.020;6.764;2023-02-08T13:52:05;4.30;;;3.90;;
11837;SDS011;5978;51.020;6.764;2023-02-08T13:54:32;4.30;;;3.90;;
11837;SDS011;5978;51.020;6.764;2023-02-08T13:56:58;9.30;;;4.80;;
11837;SDS011;5978;51.020;6.764;2023-02-08T13:59:36;5.77;;;4.30;;
11837;SDS011;5978;51.020;6.764;2023-02-08T14:04:37;4.53;;;4.13;;
11837;SDS011;5978;51.020;6.764;2023-02-08T14:09:45;5.67;;;4.27;;
11837;SDS011;5978;51.020;6.764;2023-02-08T14:12:20;4.33;;;3.93;;
11837;SDS011;5978;51.020;6.764;2023-02-08T14:17:47;4.20;;;3.80;;
11837;SDS011;5978;51.020;6.764;2023-02-08T14:22:53;6.50;;;4.47;;
11837;SDS011;5978;51.020;6.764;2023-02-08T14:25:24;5.13;;;3.60;;
11837;SDS011;5978;51.020;6.764;2023-02-08T14:27:57;4.93;;;3.77;;
11837;SDS011;5978;51.020;6.764;2023-02-08T14:30:32;4.13;;;3.40;;
11837;SDS011;5978;51.020;6.764;2023-02-08T14:35:32;5.60;;;4.20;;
11837;SDS011;5978;51.020;6.764;2023-02-08T14:40:49;4.40;;;3.70;;
11837;SDS011;5978;51.020;6.764;2023-02-08T14:45:45;7.10;;;4.37;;
11837;SDS011;5978;51.020;6.764;2023-02-08T15:01:47;6.10;;;3.90;;
11837;SDS011;5978;51.020;6.764;2023-02-08T15:04:17;4.43;;;4.07;;
11837;SDS011;5978;51.020;6.764;2023-02-08T15:06:47;4.23;;;3.83;;
11837;SDS011;5978;51.020;6.764;2023-02-08T15:09:23;4.50;;;3.20;;
11837;SDS011;5978;51.020;6.764;2023-02-08T15:11:57;4.90;;;3.77;;
11837;SDS011;5978;51.020;6.764;2023-02-08T15:14:25;5.37;;;3.43;;
11837;SDS011;5978;51.020;6.764;2023-02-08T15:16:51;4.80;;;3.50;;
11837;SDS011;5978;51.020;6.764;2023-02-08T15:19:28;4.03;;;3.63;;
11837;SDS011;5978;51.020;6.764;2023-02-08T15:22:17;6.93;;;3.83;;
11837;SDS011;5978;51.020;6.764;2023-02-08T15:24:53;4.60;;;2.70;;
11837;SDS011;5978;51.020;6.764;2023-02-08T15:27:24;5.03;;;2.90;;
11837;SDS011;5978;51.020;6.764;2023-02-08T15:29:55;5.03;;;3.20;;
11837;SDS011;5978;51.020;6.764;2023-02-08T15:32:22;2.60;;;2.40;;
11837;SDS011;5978;51.020;6.764;2023-02-08T15:34:54;2.50;;;2.20;;
11837;SDS011;5978;51.020;6.764;2023-02-08T15:37:24;4.90;;;2.47;;
11837;SDS011;5978;51.020;6.764;2023-02-08T15:39:52;5.90;;;2.40;;
11837;SDS011;5978;51.020;6.764;2023-02-08T15:42:24;4.20;;;2.63;;
11837;SDS011;5978;51.020;6.764;2023-02-08T15:44:55;5.50;;;2.23;;
11837;SDS011;5978;51.020;6.764;2023-02-08T15:47:25;3.43;;;2.90;;
11837;SDS011;5978;51.020;6.764;2023-02-08T15:49:51;5.47;;;3.23;;
11837;SDS011;5978;51.020;6.764;2023-02-08T15:52:20;3.00;;;2.50;;
11837;SDS011;5978;51.020;6.764;2023-02-08T15:54:49;2.97;;;2.40;;
11837;SDS011;5978;51.020;6.764;2023-02-08T15:59:59;5.20;;;1.90;;
11837;SDS011;5978;51.020;6.764;2023-02-08T16:02:29;4.07;;;2.50;;
11837;SDS011;5978;51.020;6.764;2023-02-08T16:04:56;5.00;;;2.57;;
11837;SDS011;5978;51.020;6.764;2023-02-08T16:07:35;4.10;;;2.40;;
11837;SDS011;5978;51.020;6.764;2023-02-08T16:10:04;3.77;;;2.00;;
11837;SDS011;5978;51.020;6.764;2023-02-08T16:12:31;6.45;;;2.40;;
11837;SDS011;5978;51.020;6.764;2023-02-08T16:14:58;3.85;;;2.03;;
11837;SDS011;5978;51.020;6.764;2023-02-08T16:17:32;3.93;;;2.20;;
11837;SDS011;5978;51.020;6.764;2023-02-08T16:19:59;5.40;;;2.75;;
11837;SDS011;5978;51.020;6.764;2023-02-08T16:22:28;4.10;;;2.20;;
11837;SDS011;5978;51.020;6.764;2023-02-08T16:27:47;2.88;;;1.75;;
11837;SDS011;5978;51.020;6.764;2023-02-08T16:30:17;4.63;;;2.00;;
11837;SDS011;5978;51.020;6.764;2023-02-08T16:32:44;3.17;;;2.40;;
11837;SDS011;5978;51.020;6.764;2023-02-08T16:35:11;2.40;;;2.20;;
11837;SDS011;5978;51.020;6.764;2023-02-08T16:37:38;5.40;;;2.22;;
11837;SDS011;5978;51.020;6.764;2023-02-08T16:40:47;7.53;;;2.40;;
11837;SDS011;5978;51.020;6.764;2023-02-08T16:45:45;5.03;;;2.67;;
11837;SDS011;5978;51.020;6.764;2023-02-08T16:48:34;6.03;;;2.97;;
11837;SDS011;5978;51.020;6.764;2023-02-08T16:51:02;2.50;;;2.30;;
11837;SDS011;5978;51.020;6.764;2023-02-08T16:53:30;12.45;;;3.17;;
11837;SDS011;5978;51.020;6.764;2023-02-08T16:55:56;3.80;;;3.10;;
11837;SDS011;5978;51.020;6.764;2023-02-08T16:58:23;8.38;;;3.58;;
11837;SDS011;5978;51.020;6.764;2023-02-08T17:00:49;4.50;;;3.07;;
11837;SDS011;5978;51.020;6.764;2023-02-08T17:03:15;5.43;;;3.63;;
11837;SDS011;5978;51.020;6.764;2023-02-08T17:05:40;5.77;;;3.97;;
11837;SDS011;5978;51.020;6.764;2023-02-08T17:08:10;8.95;;;3.70;;
11837;SDS011;5978;51.020;6.764;2023-02-08T17:10:40;5.60;;;3.22;;
11837;SDS011;5978;51.020;6.764;2023-02-08T17:13:08;6.45;;;3.85;;
11837;SDS011;5978;51.020;6.764;2023-02-08T17:15:34;7.55;;;4.10;;
11837;SDS011;5978;51.020;6.764;2023-02-08T17:18:00;6.20;;;3.83;;
11837;SDS011;5978;51.020;6.764;2023-02-08T17:20:34;4.90;;;4.10;;
11837;SDS011;5978;51.020;6.764;2023-02-08T17:23:01;5.40;;;4.28;;
11837;SDS011;5978;51.020;6.764;2023-02-08T17:25:29;6.53;;;4.32;;